createdAt,value
2023-03-02T00:00:16.490Z,8.88
2023-03-02T00:02:44.819Z,8.90
2023-03-02T00:05:14.813Z,8.68
2023-03-02T00:07:42.986Z,8.75
2023-03-02T00:10:12.192Z,8.85
2023-03-02T00:12:40.922Z,8.85
2023-03-02T00:15:09.649Z,8.70
2023-03-02T00:17:37.771Z,9.10
2023-03-02T00:20:13.044Z,8.35
2023-03-02T00:22:43.567Z,8.32
2023-03-02T00:25:13.178Z,9.40
2023-03-02T00:27:41.259Z,9.52
2023-03-02T00:30:13.937Z,10.07
2023-03-02T00:32:42.309Z,9.52
2023-03-02T00:35:10.789Z,9.55
2023-03-02T00:37:39.564Z,8.93
2023-03-02T00:40:12.915Z,9.70
2023-03-02T00:42:40.780Z,8.85
2023-03-02T00:45:09.294Z,8.57
2023-03-02T00:47:38.102Z,9.68
2023-03-02T00:50:07.409Z,8.88
2023-03-02T00:52:36.221Z,8.98
2023-03-02T00:55:04.178Z,8.20
2023-03-02T00:57:31.961Z,8.70
2023-03-02T01:00:00.064Z,9.48
2023-03-02T01:02:33.630Z,9.85
2023-03-02T01:05:01.846Z,8.70
2023-03-02T01:07:29.623Z,9.30
2023-03-02T01:09:57.378Z,9.07
2023-03-02T01:12:25.263Z,9.40
2023-03-02T01:14:54.662Z,8.80
2023-03-02T01:17:23.156Z,9.07
2023-03-02T01:19:52.833Z,9.75
2023-03-02T01:22:21.305Z,8.73
2023-03-02T01:24:50.033Z,8.60
2023-03-02T01:27:18.111Z,8.15
2023-03-02T01:29:46.433Z,8.65
2023-03-02T01:32:14.303Z,8.65
2023-03-02T01:34:42.066Z,8.38
2023-03-02T01:37:09.973Z,8.45
2023-03-02T01:39:38.747Z,7.70
2023-03-02T01:42:08.241Z,7.88
2023-03-02T01:44:51.412Z,7.70
2023-03-02T01:47:27.150Z,8.27
2023-03-02T01:50:22.995Z,7.22
2023-03-02T01:52:55.941Z,7.50
2023-03-02T01:55:31.034Z,7.97
2023-03-02T01:58:00.078Z,7.40
2023-03-02T02:00:34.569Z,7.32
2023-03-02T02:03:09.316Z,6.85
2023-03-02T02:05:41.222Z,7.00
2023-03-02T02:08:09.985Z,7.18
2023-03-02T02:10:40.265Z,6.85
2023-03-02T02:13:11.943Z,6.28
2023-03-02T02:15:41.769Z,7.05
2023-03-02T02:18:10.036Z,6.97
2023-03-02T02:20:46.599Z,6.05
2023-03-02T02:23:28.307Z,7.20
2023-03-02T02:25:56.062Z,6.85
2023-03-02T02:28:42.937Z,6.50
2023-03-02T02:31:13.642Z,6.07
2023-03-02T02:33:46.039Z,6.95
2023-03-02T02:36:23.477Z,6.38
2023-03-02T02:38:56.191Z,6.20
2023-03-02T02:41:31.837Z,5.70
2023-03-02T02:44:01.688Z,6.00
2023-03-02T02:46:29.973Z,6.03
2023-03-02T02:48:58.262Z,5.43
2023-03-02T02:51:29.690Z,5.90
2023-03-02T02:54:02.686Z,5.93
2023-03-02T02:59:14.013Z,6.00
2023-03-02T03:01:42.824Z,6.65
2023-03-02T03:04:17.587Z,6.30
2023-03-02T03:06:58.373Z,6.22
2023-03-02T03:09:27.312Z,6.25
2023-03-02T03:11:58.289Z,6.63
2023-03-02T03:14:39.682Z,6.30
2023-03-02T03:17:14.220Z,6.55
2023-03-02T03:20:09.548Z,6.35
2023-03-02T03:22:42.410Z,6.38
2023-03-02T03:25:15.598Z,6.47
2023-03-02T03:27:46.776Z,6.13
2023-03-02T03:30:16.134Z,6.25
2023-03-02T03:32:44.684Z,6.22
2023-03-02T03:35:14.534Z,6.28
2023-03-02T03:37:43.696Z,6.68
2023-03-02T03:40:12.329Z,6.65
2023-03-02T03:42:44.355Z,6.53
2023-03-02T03:45:13.805Z,6.35
2023-03-02T03:47:44.307Z,6.35
2023-03-02T03:50:12.331Z,6.20
2023-03-02T03:52:41.182Z,6.20
2023-03-02T03:55:18.131Z,6.72
2023-03-02T03:57:47.536Z,6.20
2023-03-02T04:00:20.193Z,6.47
2023-03-02T04:02:56.700Z,6.50
2023-03-02T04:05:25.388Z,6.25
2023-03-02T04:07:54.950Z,6.05
2023-03-02T04:10:23.637Z,6.15
2023-03-02T04:12:53.916Z,6.60
2023-03-02T04:15:22.490Z,6.05
2023-03-02T04:17:52.361Z,6.60
2023-03-02T04:20:23.962Z,5.70
2023-03-02T04:22:56.469Z,6.20
2023-03-02T04:25:27.859Z,5.95
2023-03-02T04:28:00.884Z,5.25
2023-03-02T04:30:33.556Z,5.90
2023-03-02T04:33:01.580Z,5.93
2023-03-02T04:35:30.522Z,6.22
2023-03-02T04:37:59.535Z,5.72
2023-03-02T04:40:27.703Z,5.38
2023-03-02T04:42:55.606Z,4.82
2023-03-02T04:45:23.406Z,5.15
2023-03-02T04:47:51.156Z,5.50
2023-03-02T04:50:19.281Z,5.65
2023-03-02T04:52:48.264Z,5.10
2023-03-02T04:55:26.511Z,5.10
2023-03-02T04:57:54.408Z,4.53
2023-03-02T05:00:22.558Z,5.30
2023-03-02T05:02:50.406Z,5.95
2023-03-02T05:05:22.420Z,5.00
2023-03-02T05:07:52.491Z,5.03
2023-03-02T05:10:21.830Z,4.88
2023-03-02T05:12:58.406Z,5.07
2023-03-02T05:15:32.762Z,4.87
2023-03-02T05:18:02.109Z,4.60
2023-03-02T05:20:31.678Z,4.35
2023-03-02T05:23:02.358Z,5.35
2023-03-02T05:25:31.969Z,4.97
2023-03-02T05:28:00.882Z,5.35
2023-03-02T05:30:29.356Z,5.25
2023-03-02T05:32:57.399Z,4.63
2023-03-02T05:35:27.132Z,5.03
2023-03-02T05:37:55.186Z,5.53
2023-03-02T05:40:26.360Z,5.93
2023-03-02T05:42:54.892Z,7.35
2023-03-02T05:45:26.852Z,6.70
2023-03-02T05:47:55.350Z,6.60
2023-03-02T05:50:24.134Z,6.72
2023-03-02T05:52:51.926Z,6.28
2023-03-02T05:55:20.812Z,6.20
2023-03-02T05:57:51.549Z,6.75
2023-03-02T06:00:20.522Z,7.57
2023-03-02T06:02:49.164Z,7.38
2023-03-02T06:05:19.110Z,7.80
2023-03-02T06:07:46.901Z,8.55
2023-03-02T06:10:15.176Z,7.95
2023-03-02T06:12:43.671Z,8.40
2023-03-02T06:15:11.716Z,7.20
2023-03-02T06:17:39.660Z,7.22
2023-03-02T06:20:11.593Z,7.07
2023-03-02T06:22:47.827Z,7.78
2023-03-02T06:25:21.122Z,7.43
2023-03-02T06:27:52.096Z,7.90
2023-03-02T06:30:24.860Z,7.45
2023-03-02T06:32:52.724Z,7.03
2023-03-02T06:35:21.156Z,7.22
2023-03-02T06:37:49.330Z,7.38
2023-03-02T06:40:18.709Z,7.30
2023-03-02T06:42:46.610Z,6.75
2023-03-02T06:45:14.427Z,6.60
2023-03-02T06:47:42.301Z,6.47
2023-03-02T06:50:11.157Z,7.13
2023-03-02T06:52:39.127Z,6.90
2023-03-02T06:55:08.423Z,6.15
2023-03-02T06:57:37.118Z,6.25
2023-03-02T07:00:14.343Z,7.53
2023-03-02T07:02:42.470Z,6.43
2023-03-02T07:05:14.132Z,6.60
2023-03-02T07:07:43.723Z,6.85
2023-03-02T07:10:13.566Z,6.70
2023-03-02T07:12:42.661Z,6.75
2023-03-02T07:15:12.539Z,6.72
2023-03-02T07:17:45.320Z,6.88
2023-03-02T07:20:17.720Z,7.47
2023-03-02T07:22:45.543Z,6.82
2023-03-02T07:25:14.289Z,7.00
2023-03-02T07:27:42.316Z,7.10
2023-03-02T07:30:11.039Z,7.60
2023-03-02T07:32:39.029Z,7.75
2023-03-02T07:35:07.480Z,7.70
2023-03-02T07:37:35.567Z,9.30
2023-03-02T07:40:04.111Z,7.40
2023-03-02T07:42:34.333Z,7.38
2023-03-02T07:45:05.619Z,7.10
2023-03-02T07:47:33.802Z,6.90
2023-03-02T07:50:01.794Z,7.78
2023-03-02T07:52:34.309Z,8.27
2023-03-02T07:55:02.545Z,7.38
2023-03-02T07:57:30.564Z,7.18
2023-03-02T07:59:58.627Z,7.95
2023-03-02T08:02:26.843Z,7.70
2023-03-02T08:04:54.888Z,7.72
2023-03-02T08:07:22.646Z,8.32
2023-03-02T08:09:50.581Z,7.90
2023-03-02T08:12:18.529Z,7.88
2023-03-02T08:14:48.254Z,7.28
2023-03-02T08:17:16.183Z,7.95
2023-03-02T08:19:43.979Z,7.60
2023-03-02T08:22:12.319Z,8.05
2023-03-02T08:24:41.988Z,7.82
2023-03-02T08:27:14.442Z,8.80
2023-03-02T08:29:42.201Z,7.22
2023-03-02T08:32:11.767Z,8.55
2023-03-02T08:34:39.985Z,8.30
2023-03-02T08:37:07.953Z,7.85
2023-03-02T08:39:35.799Z,8.02
2023-03-02T08:42:03.680Z,7.78
2023-03-02T08:44:31.567Z,8.02
2023-03-02T08:49:45.999Z,4.82
2023-03-02T08:52:15.557Z,6.13
2023-03-02T08:58:41.656Z,7.60
2023-03-02T09:07:42.490Z,7.75
2023-03-02T09:10:46.372Z,7.50
2023-03-02T09:17:10.906Z,8.25
2023-03-02T09:24:23.531Z,9.52
2023-03-02T09:27:06.370Z,8.57
2023-03-02T09:33:53.810Z,9.70
2023-03-02T09:52:38.406Z,8.00
2023-03-02T10:09:15.623Z,8.85
2023-03-02T10:12:25.780Z,7.53
2023-03-02T10:16:11.554Z,10.30
2023-03-02T10:19:42.760Z,10.02
2023-03-02T10:22:55.470Z,8.97
2023-03-02T10:26:35.624Z,8.60
2023-03-02T10:29:41.565Z,7.97
2023-03-02T10:32:44.137Z,8.60
2023-03-02T10:39:19.820Z,10.43
2023-03-02T10:46:17.259Z,8.98
2023-03-02T10:49:20.909Z,7.63
2023-03-02T10:51:57.205Z,9.15
2023-03-02T10:54:46.647Z,10.82
2023-03-02T11:02:34.511Z,9.30
2023-03-02T11:09:17.404Z,8.10
2023-03-02T11:19:19.249Z,7.60
2023-03-02T11:22:06.506Z,8.23
2023-03-02T11:24:55.666Z,8.35
2023-03-02T11:32:27.827Z,7.80
2023-03-02T11:35:35.914Z,8.00
2023-03-02T11:42:54.563Z,7.25
2023-03-02T11:46:21.598Z,6.82
2023-03-02T11:49:44.513Z,7.97
2023-03-02T11:52:39.844Z,8.77
2023-03-02T11:55:15.529Z,7.53
2023-03-02T11:59:03.186Z,7.63
2023-03-02T12:02:19.314Z,7.45
2023-03-02T12:05:40.236Z,7.75
2023-03-02T12:08:50.359Z,7.20
2023-03-02T12:11:37.665Z,9.07
2023-03-02T12:14:52.267Z,8.82
2023-03-02T12:23:33.359Z,6.95
2023-03-02T12:26:23.313Z,7.57
2023-03-02T12:29:19.247Z,6.88
2023-03-02T12:36:18.742Z,7.53
2023-03-02T12:39:07.581Z,11.43
2023-03-02T12:42:07.279Z,12.27
2023-03-02T12:44:54.872Z,11.38
2023-03-02T12:47:30.217Z,10.85
2023-03-02T12:50:02.794Z,12.68
2023-03-02T12:52:36.261Z,13.32
2023-03-02T12:55:09.954Z,11.98
2023-03-02T12:57:47.346Z,10.52
2023-03-02T13:02:52.756Z,12.38
2023-03-02T13:05:33.006Z,12.88
2023-03-02T13:08:05.674Z,13.10
2023-03-02T13:10:43.214Z,12.65
2023-03-02T13:13:20.296Z,12.88
2023-03-02T13:15:59.760Z,12.57
2023-03-02T13:18:34.089Z,14.98
2023-03-02T13:21:04.735Z,13.18
2023-03-02T13:23:36.048Z,12.25
2023-03-02T13:26:07.150Z,14.48
2023-03-02T13:28:40.083Z,13.48
2023-03-02T13:31:21.158Z,13.38
2023-03-02T13:33:50.657Z,12.45
2023-03-02T13:36:31.269Z,11.32
2023-03-02T13:39:00.195Z,11.32
2023-03-02T13:41:33.673Z,10.73
2023-03-02T13:44:19.997Z,12.23
2023-03-02T13:46:48.810Z,13.07
2023-03-02T13:49:30.659Z,12.60
2023-03-02T13:52:28.332Z,12.10
2023-03-02T13:54:56.231Z,9.20
2023-03-02T13:57:33.458Z,10.43
2023-03-02T14:02:31.341Z,10.35
2023-03-02T14:04:59.955Z,11.25
2023-03-02T14:07:27.762Z,10.65
2023-03-02T14:09:57.600Z,11.70
2023-03-02T14:12:33.964Z,11.35
2023-03-02T14:15:04.507Z,12.52
2023-03-02T14:17:33.608Z,13.20
2023-03-02T14:20:03.850Z,11.95
2023-03-02T14:22:32.121Z,11.35
2023-03-02T14:24:59.972Z,10.23
2023-03-02T14:27:30.099Z,9.55
2023-03-02T14:29:59.195Z,10.80
2023-03-02T14:32:27.540Z,11.50
2023-03-02T14:34:55.427Z,11.45
2023-03-02T14:37:28.962Z,10.82
2023-03-02T14:39:57.393Z,9.95
2023-03-02T14:42:25.238Z,9.40
2023-03-02T14:44:53.311Z,8.65
2023-03-02T14:47:22.052Z,8.98
2023-03-02T14:49:49.762Z,8.50
2023-03-02T14:52:23.692Z,8.32
2023-03-02T14:54:55.969Z,8.18
2023-03-02T14:57:26.768Z,8.73
2023-03-02T14:59:56.081Z,8.93
2023-03-02T15:02:31.163Z,9.68
2023-03-02T15:04:59.088Z,8.73
2023-03-02T15:07:28.132Z,8.55
2023-03-02T15:09:59.508Z,8.32
2023-03-02T15:12:27.374Z,8.27
2023-03-02T15:14:56.673Z,7.93
2023-03-02T15:17:24.523Z,8.13
2023-03-02T15:19:52.417Z,9.02
2023-03-02T15:22:20.396Z,11.88
2023-03-02T15:24:48.413Z,11.32
2023-03-02T15:27:18.043Z,12.43
2023-03-02T15:29:46.648Z,12.98
2023-03-02T15:32:16.191Z,13.05
2023-03-02T15:34:44.476Z,11.00
2023-03-02T15:37:13.019Z,9.35
2023-03-02T15:39:41.168Z,12.27
2023-03-02T15:42:09.112Z,11.65
2023-03-02T15:44:36.907Z,11.48
2023-03-02T15:47:05.168Z,10.95
2023-03-02T15:49:33.033Z,11.90
2023-03-02T15:52:01.066Z,11.55
2023-03-02T15:54:29.469Z,11.60
2023-03-02T15:56:58.615Z,10.38
2023-03-02T15:59:28.943Z,10.48
2023-03-02T16:01:59.673Z,10.52
2023-03-02T16:04:30.856Z,9.32
2023-03-02T16:06:59.463Z,10.15
2023-03-02T16:09:32.418Z,9.55
2023-03-02T16:12:00.499Z,9.40
2023-03-02T16:14:28.599Z,9.23
2023-03-02T16:16:56.776Z,8.52
2023-03-02T16:19:24.621Z,9.55
2023-03-02T16:21:52.484Z,11.77
2023-03-02T16:24:20.344Z,11.45
2023-03-02T16:26:53.210Z,10.13
2023-03-02T16:29:21.532Z,10.50
2023-03-02T16:31:49.493Z,11.05
2023-03-02T16:34:17.722Z,10.32
2023-03-02T16:36:45.658Z,9.85
2023-03-02T16:39:14.449Z,9.98
2023-03-02T16:41:44.098Z,9.68
2023-03-02T16:44:14.968Z,9.77
2023-03-02T16:46:45.313Z,10.02
2023-03-02T16:49:14.559Z,9.15
2023-03-02T16:51:42.913Z,9.93
2023-03-02T16:54:11.360Z,9.43
2023-03-02T16:56:39.989Z,9.88
2023-03-02T16:59:07.828Z,10.05
2023-03-02T17:01:36.013Z,9.50
2023-03-02T17:04:06.134Z,9.48
2023-03-02T17:06:40.102Z,9.98
2023-03-02T17:09:13.587Z,9.07
2023-03-02T17:11:41.963Z,9.00
2023-03-02T17:14:11.478Z,9.52
2023-03-02T17:16:41.679Z,9.35
2023-03-02T17:19:09.685Z,9.32
2023-03-02T17:21:37.542Z,9.60
2023-03-02T17:24:05.596Z,9.70
2023-03-02T17:26:33.564Z,9.57
2023-03-02T17:29:01.343Z,10.55
2023-03-02T17:31:32.620Z,10.52
2023-03-02T17:34:00.538Z,9.65
2023-03-02T17:36:28.396Z,9.88
2023-03-02T17:38:56.046Z,9.68
2023-03-02T17:41:24.241Z,10.70
2023-03-02T17:43:52.243Z,10.50
2023-03-02T17:46:23.606Z,9.45
2023-03-02T17:48:54.903Z,10.05
2023-03-02T17:51:24.259Z,9.65
2023-03-02T17:53:53.325Z,9.48
2023-03-02T17:56:28.112Z,9.48
2023-03-02T17:59:02.088Z,9.10
2023-03-02T18:01:30.505Z,9.10
2023-03-02T18:03:59.251Z,10.23
2023-03-02T18:06:28.511Z,10.52
2023-03-02T18:08:56.351Z,9.77
2023-03-02T18:11:26.528Z,9.35
2023-03-02T18:13:55.231Z,9.05
2023-03-02T18:16:24.403Z,10.40
2023-03-02T18:18:54.042Z,9.52
2023-03-02T18:21:22.440Z,10.18
2023-03-02T18:23:50.199Z,10.00
2023-03-02T18:26:19.367Z,10.35
2023-03-02T18:28:47.209Z,10.02
2023-03-02T18:31:17.273Z,9.90
2023-03-02T18:33:45.529Z,10.85
2023-03-02T18:36:15.708Z,9.65
2023-03-02T18:38:44.152Z,9.80
2023-03-02T18:41:13.852Z,9.98
2023-03-02T18:43:42.632Z,9.63
2023-03-02T18:46:19.806Z,10.30
2023-03-02T18:48:47.831Z,11.10
2023-03-02T18:51:17.649Z,10.57
2023-03-02T18:53:46.435Z,12.77
2023-03-02T18:56:14.866Z,12.60
2023-03-02T18:58:45.097Z,13.80
2023-03-02T19:01:14.302Z,12.85
2023-03-02T19:03:45.983Z,12.23
2023-03-02T19:06:15.016Z,11.63
2023-03-02T19:08:42.872Z,11.27
2023-03-02T19:11:11.871Z,11.30
2023-03-02T19:13:39.998Z,11.38
2023-03-02T19:16:08.858Z,10.85
2023-03-02T19:18:38.054Z,10.63
2023-03-02T19:21:08.871Z,10.52
2023-03-02T19:23:37.127Z,10.40
2023-03-02T19:26:05.807Z,10.15
2023-03-02T19:28:35.181Z,11.90
2023-03-02T19:31:06.958Z,14.88
2023-03-02T19:33:35.563Z,15.65
2023-03-02T19:36:05.442Z,17.90
2023-03-02T19:38:33.568Z,14.65
2023-03-02T19:41:02.275Z,13.43
2023-03-02T19:43:30.227Z,13.65
2023-03-02T19:45:59.302Z,13.65
2023-03-02T19:48:27.409Z,12.35
2023-03-02T19:50:55.117Z,12.85
2023-03-02T19:53:22.978Z,13.10
2023-03-02T19:55:52.754Z,12.73
2023-03-02T19:58:23.948Z,14.82
2023-03-02T20:00:52.212Z,14.00
2023-03-02T20:03:19.943Z,13.80
2023-03-02T20:05:48.123Z,13.52
2023-03-02T20:08:17.272Z,12.73
2023-03-02T20:10:46.937Z,12.38
2023-03-02T20:13:14.732Z,13.73
2023-03-02T20:18:45.939Z,12.95
2023-03-02T20:21:13.616Z,12.65
2023-03-02T20:23:41.707Z,12.45
2023-03-02T20:26:09.641Z,11.43
2023-03-02T20:28:50.483Z,12.13
2023-03-02T20:31:19.033Z,11.02
2023-03-02T20:33:50.630Z,10.30
2023-03-02T20:36:25.697Z,11.57
2023-03-02T20:38:58.856Z,11.18
2023-03-02T20:41:29.753Z,12.23
2023-03-02T20:43:57.767Z,11.73
2023-03-02T20:46:34.437Z,11.10
2023-03-02T20:49:03.629Z,11.52
2023-03-02T20:51:33.034Z,12.60
2023-03-02T20:54:01.969Z,12.32
2023-03-02T20:56:29.723Z,12.75
2023-03-02T20:58:57.514Z,12.35
2023-03-02T21:01:26.304Z,12.35
2023-03-02T21:03:54.079Z,11.65
2023-03-02T21:06:22.399Z,12.32
2023-03-02T21:08:50.434Z,13.05
2023-03-02T21:11:21.480Z,12.02
2023-03-02T21:13:49.647Z,13.18
2023-03-02T21:16:24.818Z,12.70
2023-03-02T21:18:55.104Z,11.98
2023-03-02T21:21:35.624Z,12.23
2023-03-02T21:24:08.723Z,12.20
2023-03-02T21:26:55.178Z,12.43
2023-03-02T21:29:31.033Z,12.25
2023-03-02T21:31:59.403Z,11.90
2023-03-02T21:34:29.560Z,11.93
2023-03-02T21:36:57.871Z,11.55
2023-03-02T21:39:25.827Z,12.52
2023-03-02T21:41:54.167Z,12.80
2023-03-02T21:44:29.652Z,12.65
2023-03-02T21:46:57.642Z,13.02
2023-03-02T21:49:26.130Z,12.73
2023-03-02T21:51:53.919Z,12.40
2023-03-02T21:54:21.696Z,11.77
2023-03-02T21:56:49.643Z,12.10
2023-03-02T21:59:19.253Z,12.85
2023-03-02T22:01:48.335Z,13.45
2023-03-02T22:04:17.747Z,13.40
2023-03-02T22:06:47.315Z,13.50
2023-03-02T22:09:15.124Z,13.38
2023-03-02T22:11:45.076Z,12.68
2023-03-02T22:14:17.926Z,13.02
2023-03-02T22:16:48.335Z,13.68
2023-03-02T22:19:32.608Z,13.43
2023-03-02T22:22:03.511Z,12.73
2023-03-02T22:24:33.679Z,13.23
2023-03-02T22:27:34.830Z,13.57
2023-03-02T22:30:15.197Z,13.70
2023-03-02T22:32:43.181Z,13.70
2023-03-02T22:35:24.778Z,14.13
2023-03-02T22:38:02.295Z,13.70
2023-03-02T22:40:33.540Z,13.45
2023-03-02T22:43:27.436Z,13.68
2023-03-02T22:46:08.634Z,14.93
2023-03-02T22:48:38.701Z,14.57
2023-03-02T22:51:15.468Z,14.35
2023-03-02T22:53:49.466Z,15.48
2023-03-02T22:56:29.185Z,14.57
2023-03-02T22:59:03.283Z,13.80
2023-03-02T23:01:39.443Z,13.68
2023-03-02T23:04:19.261Z,13.85
2023-03-02T23:07:01.234Z,13.88
2023-03-02T23:09:33.038Z,14.65
2023-03-02T23:12:26.941Z,14.13
2023-03-02T23:14:57.513Z,15.13
2023-03-02T23:17:51.636Z,13.13
2023-03-02T23:20:19.520Z,15.25
2023-03-02T23:22:50.113Z,14.13
2023-03-02T23:25:18.162Z,14.98
2023-03-02T23:27:46.025Z,13.70
2023-03-02T23:30:18.015Z,14.82
2023-03-02T23:32:46.066Z,14.10
2023-03-02T23:35:14.030Z,14.27
2023-03-02T23:37:42.568Z,14.05
2023-03-02T23:40:13.489Z,13.60
2023-03-02T23:42:44.728Z,12.90
2023-03-02T23:45:12.625Z,13.85
2023-03-02T23:47:40.357Z,13.20
2023-03-02T23:50:09.426Z,13.32
2023-03-02T23:52:39.643Z,13.70
2023-03-02T23:55:09.508Z,13.55
2023-03-02T23:57:37.330Z,14.00
